sensor_id;sensor_type;location;lat;lon;timestamp;P1;durP1;ratioP1;P2;durP2;ratioP2
5989;SDS011;14149;53.562;10.032;2022-09-09T00:00:48;53.03;;;25.83;;
5989;SDS011;14149;53.562;10.032;2022-09-09T00:03:19;56.40;;;26.07;;
5989;SDS011;14149;53.562;10.032;2022-09-09T00:05:51;58.70;;;26.50;;
5989;SDS011;14149;53.562;10.032;2022-09-09T00:08:19;68.97;;;28.00;;
5989;SDS011;14149;53.562;10.032;2022-09-09T00:10:46;70.00;;;27.30;;
5989;SDS011;14149;53.562;10.032;2022-09-09T00:13:21;61.80;;;26.77;;
5989;SDS011;14149;53.562;10.032;2022-09-09T00:15:58;60.30;;;28.63;;
5989;SDS011;14149;53.562;10.032;2022-09-09T00:21:05;66.50;;;32.67;;
5989;SDS011;14149;53.562;10.032;2022-09-09T00:23:37;55.73;;;29.67;;
5989;SDS011;14149;53.562;10.032;2022-09-09T00:28:41;58.30;;;27.60;;
5989;SDS011;14149;53.562;10.032;2022-09-09T00:31:13;70.23;;;28.97;;
5989;SDS011;14149;53.562;10.032;2022-09-09T00:33:39;65.43;;;26.10;;
5989;SDS011;14149;53.562;10.032;2022-09-09T00:36:09;57.63;;;26.73;;
5989;SDS011;14149;53.562;10.032;2022-09-09T00:38:48;66.90;;;25.77;;
5989;SDS011;14149;53.562;10.032;2022-09-09T00:41:24;56.57;;;23.80;;
5989;SDS011;14149;53.562;10.032;2022-09-09T00:43:55;53.47;;;23.10;;
5989;SDS011;14149;53.562;10.032;2022-09-09T00:46:41;61.87;;;25.63;;
5989;SDS011;14149;53.562;10.032;2022-09-09T00:57:00;46.30;;;21.00;;
5989;SDS011;14149;53.562;10.032;2022-09-09T00:59:32;44.53;;;21.73;;
5989;SDS011;14149;53.562;10.032;2022-09-09T01:02:12;42.33;;;19.50;;
5989;SDS011;14149;53.562;10.032;2022-09-09T01:04:39;43.60;;;20.00;;
5989;SDS011;14149;53.562;10.032;2022-09-09T01:07:10;36.23;;;19.27;;
5989;SDS011;14149;53.562;10.032;2022-09-09T01:09:44;40.80;;;19.10;;
5989;SDS011;14149;53.562;10.032;2022-09-09T01:14:54;37.57;;;18.97;;
5989;SDS011;14149;53.562;10.032;2022-09-09T01:17:26;35.13;;;19.60;;
5989;SDS011;14149;53.562;10.032;2022-09-09T01:20:04;36.53;;;18.63;;
5989;SDS011;14149;53.562;10.032;2022-09-09T01:22:36;39.80;;;19.80;;
5989;SDS011;14149;53.562;10.032;2022-09-09T01:27:51;40.80;;;18.90;;
5989;SDS011;14149;53.562;10.032;2022-09-09T01:30:18;34.30;;;17.50;;
5989;SDS011;14149;53.562;10.032;2022-09-09T01:32:52;39.13;;;21.23;;
5989;SDS011;14149;53.562;10.032;2022-09-09T01:35:27;38.20;;;18.50;;
5989;SDS011;14149;53.562;10.032;2022-09-09T01:37:55;42.53;;;21.10;;
5989;SDS011;14149;53.562;10.032;2022-09-09T01:40:21;47.53;;;22.40;;
5989;SDS011;14149;53.562;10.032;2022-09-09T01:42:48;53.03;;;21.90;;
5989;SDS011;14149;53.562;10.032;2022-09-09T01:45:14;47.83;;;21.63;;
5989;SDS011;14149;53.562;10.032;2022-09-09T01:47:40;42.40;;;20.57;;
5989;SDS011;14149;53.562;10.032;2022-09-09T01:50:07;45.20;;;23.80;;
5989;SDS011;14149;53.562;10.032;2022-09-09T01:52:34;44.23;;;20.20;;
5989;SDS011;14149;53.562;10.032;2022-09-09T01:55:01;50.43;;;22.47;;
5989;SDS011;14149;53.562;10.032;2022-09-09T01:57:30;49.97;;;21.80;;
5989;SDS011;14149;53.562;10.032;2022-09-09T02:05:38;48.60;;;21.90;;
5989;SDS011;14149;53.562;10.032;2022-09-09T02:08:08;46.00;;;21.60;;
5989;SDS011;14149;53.562;10.032;2022-09-09T02:13:08;39.00;;;19.77;;
5989;SDS011;14149;53.562;10.032;2022-09-09T02:18:04;37.53;;;21.70;;
5989;SDS011;14149;53.562;10.032;2022-09-09T02:20:33;51.07;;;20.63;;
5989;SDS011;14149;53.562;10.032;2022-09-09T02:22:59;44.80;;;21.00;;
5989;SDS011;14149;53.562;10.032;2022-09-09T02:25:28;37.03;;;19.30;;
5989;SDS011;14149;53.562;10.032;2022-09-09T02:27:54;42.63;;;20.70;;
5989;SDS011;14149;53.562;10.032;2022-09-09T02:30:23;44.43;;;19.33;;
5989;SDS011;14149;53.562;10.032;2022-09-09T02:32:49;48.80;;;21.33;;
5989;SDS011;14149;53.562;10.032;2022-09-09T02:35:17;45.50;;;20.63;;
5989;SDS011;14149;53.562;10.032;2022-09-09T02:37:45;40.43;;;19.60;;
5989;SDS011;14149;53.562;10.032;2022-09-09T02:40:12;42.80;;;20.67;;
5989;SDS011;14149;53.562;10.032;2022-09-09T02:42:44;37.67;;;18.40;;
5989;SDS011;14149;53.562;10.032;2022-09-09T02:45:12;44.40;;;20.70;;
5989;SDS011;14149;53.562;10.032;2022-09-09T02:52:49;38.23;;;18.50;;
5989;SDS011;14149;53.562;10.032;2022-09-09T02:57:49;36.57;;;19.27;;
5989;SDS011;14149;53.562;10.032;2022-09-09T03:00:22;36.27;;;19.07;;
5989;SDS011;14149;53.562;10.032;2022-09-09T03:02:49;37.23;;;17.00;;
5989;SDS011;14149;53.562;10.032;2022-09-09T03:05:16;35.60;;;16.73;;
5989;SDS011;14149;53.562;10.032;2022-09-09T03:07:42;38.00;;;18.00;;
5989;SDS011;14149;53.562;10.032;2022-09-09T03:10:08;29.43;;;15.40;;
5989;SDS011;14149;53.562;10.032;2022-09-09T03:12:35;30.10;;;16.30;;
5989;SDS011;14149;53.562;10.032;2022-09-09T03:15:01;45.27;;;18.70;;
5989;SDS011;14149;53.562;10.032;2022-09-09T03:17:27;32.00;;;15.70;;
5989;SDS011;14149;53.562;10.032;2022-09-09T03:19:53;37.33;;;17.87;;
5989;SDS011;14149;53.562;10.032;2022-09-09T03:22:20;35.80;;;18.03;;
5989;SDS011;14149;53.562;10.032;2022-09-09T03:24:46;39.30;;;17.40;;
5989;SDS011;14149;53.562;10.032;2022-09-09T03:27:12;32.03;;;16.47;;
5989;SDS011;14149;53.562;10.032;2022-09-09T03:29:42;33.73;;;17.80;;
5989;SDS011;14149;53.562;10.032;2022-09-09T03:32:09;29.97;;;15.80;;
5989;SDS011;14149;53.562;10.032;2022-09-09T03:34:36;29.60;;;15.53;;
5989;SDS011;14149;53.562;10.032;2022-09-09T03:37:04;31.73;;;16.83;;
5989;SDS011;14149;53.562;10.032;2022-09-09T03:39:30;29.40;;;16.00;;
5989;SDS011;14149;53.562;10.032;2022-09-09T03:41:56;36.10;;;15.70;;
5989;SDS011;14149;53.562;10.032;2022-09-09T03:44:22;35.90;;;17.47;;
5989;SDS011;14149;53.562;10.032;2022-09-09T03:46:48;27.40;;;16.10;;
5989;SDS011;14149;53.562;10.032;2022-09-09T03:49:14;28.53;;;15.57;;
5989;SDS011;14149;53.562;10.032;2022-09-09T03:51:41;26.20;;;15.40;;
5989;SDS011;14149;53.562;10.032;2022-09-09T03:54:08;30.33;;;16.40;;
5989;SDS011;14149;53.562;10.032;2022-09-09T03:56:35;28.37;;;15.47;;
5989;SDS011;14149;53.562;10.032;2022-09-09T03:59:02;27.53;;;15.03;;
5989;SDS011;14149;53.562;10.032;2022-09-09T04:01:29;33.50;;;17.57;;
5989;SDS011;14149;53.562;10.032;2022-09-09T04:03:55;29.27;;;16.97;;
5989;SDS011;14149;53.562;10.032;2022-09-09T04:06:24;33.87;;;16.17;;
5989;SDS011;14149;53.562;10.032;2022-09-09T04:08:50;32.50;;;15.63;;
5989;SDS011;14149;53.562;10.032;2022-09-09T04:11:17;27.70;;;15.23;;
5989;SDS011;14149;53.562;10.032;2022-09-09T04:13:43;25.90;;;17.00;;
5989;SDS011;14149;53.562;10.032;2022-09-09T04:16:10;31.20;;;16.57;;
5989;SDS011;14149;53.562;10.032;2022-09-09T04:18:38;30.60;;;15.00;;
5989;SDS011;14149;53.562;10.032;2022-09-09T04:21:04;33.23;;;17.03;;
5989;SDS011;14149;53.562;10.032;2022-09-09T04:23:32;30.93;;;15.90;;
5989;SDS011;14149;53.562;10.032;2022-09-09T04:25:59;29.07;;;15.10;;
5989;SDS011;14149;53.562;10.032;2022-09-09T04:28:30;30.27;;;16.43;;
5989;SDS011;14149;53.562;10.032;2022-09-09T04:30:56;28.67;;;14.10;;
5989;SDS011;14149;53.562;10.032;2022-09-09T04:33:23;25.43;;;13.47;;
5989;SDS011;14149;53.562;10.032;2022-09-09T04:35:52;26.60;;;15.73;;
5989;SDS011;14149;53.562;10.032;2022-09-09T04:38:19;28.43;;;13.70;;
5989;SDS011;14149;53.562;10.032;2022-09-09T04:40:47;30.13;;;16.07;;
5989;SDS011;14149;53.562;10.032;2022-09-09T04:43:14;22.20;;;12.70;;
5989;SDS011;14149;53.562;10.032;2022-09-09T04:45:41;27.23;;;14.47;;
5989;SDS011;14149;53.562;10.032;2022-09-09T04:48:07;30.57;;;15.90;;
5989;SDS011;14149;53.562;10.032;2022-09-09T04:50:34;27.63;;;15.07;;
5989;SDS011;14149;53.562;10.032;2022-09-09T04:53:01;27.13;;;14.40;;
5989;SDS011;14149;53.562;10.032;2022-09-09T04:55:27;22.77;;;13.63;;
5989;SDS011;14149;53.562;10.032;2022-09-09T04:57:54;28.23;;;13.67;;
5989;SDS011;14149;53.562;10.032;2022-09-09T05:00:20;26.97;;;14.50;;
5989;SDS011;14149;53.562;10.032;2022-09-09T05:02:46;31.40;;;15.10;;
5989;SDS011;14149;53.562;10.032;2022-09-09T05:05:12;27.53;;;14.40;;
5989;SDS011;14149;53.562;10.032;2022-09-09T05:07:39;26.53;;;14.93;;
5989;SDS011;14149;53.562;10.032;2022-09-09T05:10:05;26.23;;;14.90;;
5989;SDS011;14149;53.562;10.032;2022-09-09T05:12:31;21.70;;;13.40;;
5989;SDS011;14149;53.562;10.032;2022-09-09T05:14:57;24.47;;;13.53;;
5989;SDS011;14149;53.562;10.032;2022-09-09T05:17:24;20.20;;;12.10;;
5989;SDS011;14149;53.562;10.032;2022-09-09T05:19:50;25.60;;;12.60;;
5989;SDS011;14149;53.562;10.032;2022-09-09T05:22:19;22.27;;;13.53;;
5989;SDS011;14149;53.562;10.032;2022-09-09T05:24:46;26.20;;;13.23;;
5989;SDS011;14149;53.562;10.032;2022-09-09T05:27:13;21.77;;;13.23;;
5989;SDS011;14149;53.562;10.032;2022-09-09T05:29:40;22.73;;;13.30;;
5989;SDS011;14149;53.562;10.032;2022-09-09T05:32:08;29.30;;;13.33;;
5989;SDS011;14149;53.562;10.032;2022-09-09T05:34:35;20.10;;;11.90;;
5989;SDS011;14149;53.562;10.032;2022-09-09T05:37:02;23.83;;;15.00;;
5989;SDS011;14149;53.562;10.032;2022-09-09T05:39:29;29.13;;;14.60;;
5989;SDS011;14149;53.562;10.032;2022-09-09T05:41:55;22.33;;;12.63;;
5989;SDS011;14149;53.562;10.032;2022-09-09T05:44:21;21.07;;;12.40;;
5989;SDS011;14149;53.562;10.032;2022-09-09T05:46:52;25.30;;;13.17;;
5989;SDS011;14149;53.562;10.032;2022-09-09T05:49:19;20.20;;;12.77;;
5989;SDS011;14149;53.562;10.032;2022-09-09T05:51:46;27.07;;;14.90;;
5989;SDS011;14149;53.562;10.032;2022-09-09T05:54:13;23.50;;;13.70;;
5989;SDS011;14149;53.562;10.032;2022-09-09T05:56:40;21.83;;;12.33;;
5989;SDS011;14149;53.562;10.032;2022-09-09T05:59:06;21.43;;;13.57;;
5989;SDS011;14149;53.562;10.032;2022-09-09T06:01:33;21.90;;;14.33;;
5989;SDS011;14149;53.562;10.032;2022-09-09T06:04:00;24.40;;;11.20;;
5989;SDS011;14149;53.562;10.032;2022-09-09T06:06:27;23.27;;;12.67;;
5989;SDS011;14149;53.562;10.032;2022-09-09T06:08:54;21.93;;;12.30;;
5989;SDS011;14149;53.562;10.032;2022-09-09T06:11:26;19.17;;;11.07;;
5989;SDS011;14149;53.562;10.032;2022-09-09T06:13:52;20.17;;;11.33;;
5989;SDS011;14149;53.562;10.032;2022-09-09T06:16:20;21.03;;;11.27;;
5989;SDS011;14149;53.562;10.032;2022-09-09T06:18:48;17.90;;;11.23;;
5989;SDS011;14149;53.562;10.032;2022-09-09T06:21:19;19.87;;;11.40;;
5989;SDS011;14149;53.562;10.032;2022-09-09T06:23:46;17.50;;;9.67;;
5989;SDS011;14149;53.562;10.032;2022-09-09T06:28:43;22.63;;;11.20;;
5989;SDS011;14149;53.562;10.032;2022-09-09T06:31:11;17.33;;;9.83;;
5989;SDS011;14149;53.562;10.032;2022-09-09T06:33:38;17.53;;;10.13;;
5989;SDS011;14149;53.562;10.032;2022-09-09T06:36:07;17.10;;;9.03;;
5989;SDS011;14149;53.562;10.032;2022-09-09T06:38:33;15.13;;;9.07;;
5989;SDS011;14149;53.562;10.032;2022-09-09T06:40:59;17.10;;;8.30;;
5989;SDS011;14149;53.562;10.032;2022-09-09T06:43:26;17.63;;;10.10;;
5989;SDS011;14149;53.562;10.032;2022-09-09T06:46:38;18.33;;;10.53;;
5989;SDS011;14149;53.562;10.032;2022-09-09T06:48:39;15.77;;;9.53;;
5989;SDS011;14149;53.562;10.032;2022-09-09T06:51:13;18.83;;;10.60;;
5989;SDS011;14149;53.562;10.032;2022-09-09T06:53:40;17.20;;;10.20;;
5989;SDS011;14149;53.562;10.032;2022-09-09T06:58:36;19.10;;;9.37;;
5989;SDS011;14149;53.562;10.032;2022-09-09T07:01:03;16.00;;;9.13;;
5989;SDS011;14149;53.562;10.032;2022-09-09T07:03:29;17.73;;;10.40;;
5989;SDS011;14149;53.562;10.032;2022-09-09T07:05:56;16.50;;;10.00;;
5989;SDS011;14149;53.562;10.032;2022-09-09T07:08:22;19.30;;;9.77;;
5989;SDS011;14149;53.562;10.032;2022-09-09T07:10:49;21.57;;;9.60;;
5989;SDS011;14149;53.562;10.032;2022-09-09T07:13:17;15.40;;;9.73;;
5989;SDS011;14149;53.562;10.032;2022-09-09T07:15:49;15.77;;;9.87;;
5989;SDS011;14149;53.562;10.032;2022-09-09T07:18:15;16.80;;;9.80;;
5989;SDS011;14149;53.562;10.032;2022-09-09T07:20:41;18.13;;;9.27;;
5989;SDS011;14149;53.562;10.032;2022-09-09T07:23:07;18.50;;;9.20;;
5989;SDS011;14149;53.562;10.032;2022-09-09T07:25:34;19.47;;;9.30;;
5989;SDS011;14149;53.562;10.032;2022-09-09T07:28:00;15.40;;;9.80;;
5989;SDS011;14149;53.562;10.032;2022-09-09T07:30:26;16.30;;;8.73;;
5989;SDS011;14149;53.562;10.032;2022-09-09T07:32:53;18.40;;;10.23;;
5989;SDS011;14149;53.562;10.032;2022-09-09T07:35:21;14.30;;;9.00;;
5989;SDS011;14149;53.562;10.032;2022-09-09T07:37:48;16.27;;;8.77;;
5989;SDS011;14149;53.562;10.032;2022-09-09T07:40:14;12.50;;;7.83;;
5989;SDS011;14149;53.562;10.032;2022-09-09T07:42:40;14.50;;;9.20;;
5989;SDS011;14149;53.562;10.032;2022-09-09T07:45:06;13.80;;;7.90;;
5989;SDS011;14149;53.562;10.032;2022-09-09T07:47:32;16.23;;;8.40;;
5989;SDS011;14149;53.562;10.032;2022-09-09T07:49:58;14.40;;;7.70;;
5989;SDS011;14149;53.562;10.032;2022-09-09T07:52:24;16.00;;;8.13;;
5989;SDS011;14149;53.562;10.032;2022-09-09T07:54:50;14.27;;;7.67;;
5989;SDS011;14149;53.562;10.032;2022-09-09T07:57:17;12.37;;;7.47;;
5989;SDS011;14149;53.562;10.032;2022-09-09T07:59:43;15.40;;;7.57;;
5989;SDS011;14149;53.562;10.032;2022-09-09T08:02:09;17.53;;;7.23;;
5989;SDS011;14149;53.562;10.032;2022-09-09T08:04:36;13.20;;;8.27;;
5989;SDS011;14149;53.562;10.032;2022-09-09T08:07:02;18.77;;;7.97;;
5989;SDS011;14149;53.562;10.032;2022-09-09T08:09:28;15.77;;;8.13;;
5989;SDS011;14149;53.562;10.032;2022-09-09T08:11:55;21.73;;;10.67;;
5989;SDS011;14149;53.562;10.032;2022-09-09T08:14:21;15.57;;;8.83;;
5989;SDS011;14149;53.562;10.032;2022-09-09T08:16:48;12.63;;;8.30;;
5989;SDS011;14149;53.562;10.032;2022-09-09T08:19:15;14.50;;;8.70;;
5989;SDS011;14149;53.562;10.032;2022-09-09T08:21:41;14.40;;;7.03;;
5989;SDS011;14149;53.562;10.032;2022-09-09T08:24:08;14.23;;;7.33;;
5989;SDS011;14149;53.562;10.032;2022-09-09T08:26:42;12.77;;;7.10;;
5989;SDS011;14149;53.562;10.032;2022-09-09T08:29:10;12.37;;;7.60;;
5989;SDS011;14149;53.562;10.032;2022-09-09T08:31:55;13.30;;;7.00;;
5989;SDS011;14149;53.562;10.032;2022-09-09T08:34:22;18.10;;;7.10;;
5989;SDS011;14149;53.562;10.032;2022-09-09T08:36:49;14.27;;;7.70;;
5989;SDS011;14149;53.562;10.032;2022-09-09T08:39:16;14.80;;;7.23;;
5989;SDS011;14149;53.562;10.032;2022-09-09T08:51:55;10.13;;;6.10;;
5989;SDS011;14149;53.562;10.032;2022-09-09T08:54:22;11.00;;;5.57;;
5989;SDS011;14149;53.562;10.032;2022-09-09T08:56:48;11.80;;;6.63;;
5989;SDS011;14149;53.562;10.032;2022-09-09T08:59:16;14.67;;;6.90;;
5989;SDS011;14149;53.562;10.032;2022-09-09T09:01:56;12.60;;;6.30;;
5989;SDS011;14149;53.562;10.032;2022-09-09T09:12:30;13.80;;;5.67;;
5989;SDS011;14149;53.562;10.032;2022-09-09T09:14:57;8.60;;;5.03;;
5989;SDS011;14149;53.562;10.032;2022-09-09T09:17:25;8.97;;;4.40;;
5989;SDS011;14149;53.562;10.032;2022-09-09T09:19:53;8.20;;;4.30;;
5989;SDS011;14149;53.562;10.032;2022-09-09T09:27:36;9.47;;;4.37;;
5989;SDS011;14149;53.562;10.032;2022-09-09T09:30:16;8.47;;;3.80;;
5989;SDS011;14149;53.562;10.032;2022-09-09T09:32:44;12.30;;;4.23;;
5989;SDS011;14149;53.562;10.032;2022-09-09T09:35:14;7.27;;;3.33;;
5989;SDS011;14149;53.562;10.032;2022-09-09T09:37:41;10.43;;;4.80;;
5989;SDS011;14149;53.562;10.032;2022-09-09T09:40:12;12.70;;;4.53;;
5989;SDS011;14149;53.562;10.032;2022-09-09T09:42:47;9.10;;;4.50;;
5989;SDS011;14149;53.562;10.032;2022-09-09T09:45:15;12.13;;;4.57;;
5989;SDS011;14149;53.562;10.032;2022-09-09T09:47:43;7.87;;;4.23;;
5989;SDS011;14149;53.562;10.032;2022-09-09T09:50:16;7.10;;;3.90;;
5989;SDS011;14149;53.562;10.032;2022-09-09T09:52:51;8.07;;;4.07;;
5989;SDS011;14149;53.562;10.032;2022-09-09T09:55:19;11.70;;;4.40;;
5989;SDS011;14149;53.562;10.032;2022-09-09T09:57:45;10.03;;;4.40;;
5989;SDS011;14149;53.562;10.032;2022-09-09T10:00:13;8.60;;;4.07;;
5989;SDS011;14149;53.562;10.032;2022-09-09T10:02:40;7.13;;;3.50;;
5989;SDS011;14149;53.562;10.032;2022-09-09T10:05:15;10.83;;;4.43;;
5989;SDS011;14149;53.562;10.032;2022-09-09T10:07:42;8.17;;;3.47;;
5989;SDS011;14149;53.562;10.032;2022-09-09T10:10:12;7.87;;;4.00;;
5989;SDS011;14149;53.562;10.032;2022-09-09T10:17:47;9.03;;;4.07;;
5989;SDS011;14149;53.562;10.032;2022-09-09T10:20:30;9.07;;;4.30;;
5989;SDS011;14149;53.562;10.032;2022-09-09T10:28:33;7.23;;;3.70;;
5989;SDS011;14149;53.562;10.032;2022-09-09T10:31:19;7.87;;;3.50;;
5989;SDS011;14149;53.562;10.032;2022-09-09T10:33:57;7.00;;;3.63;;
5989;SDS011;14149;53.562;10.032;2022-09-09T10:36:26;6.40;;;3.17;;
5989;SDS011;14149;53.562;10.032;2022-09-09T10:39:12;7.67;;;3.30;;
5989;SDS011;14149;53.562;10.032;2022-09-09T10:52:09;8.03;;;3.53;;
5989;SDS011;14149;53.562;10.032;2022-09-09T10:54:39;6.80;;;2.63;;
5989;SDS011;14149;53.562;10.032;2022-09-09T10:59:54;9.00;;;2.77;;
5989;SDS011;14149;53.562;10.032;2022-09-09T11:02:31;8.20;;;2.80;;
5989;SDS011;14149;53.562;10.032;2022-09-09T11:07:33;7.60;;;2.90;;
5989;SDS011;14149;53.562;10.032;2022-09-09T11:10:02;6.10;;;2.73;;
5989;SDS011;14149;53.562;10.032;2022-09-09T11:12:31;6.97;;;2.90;;
5989;SDS011;14149;53.562;10.032;2022-09-09T11:15:06;8.30;;;3.23;;
5989;SDS011;14149;53.562;10.032;2022-09-09T11:17:36;8.47;;;3.73;;
5989;SDS011;14149;53.562;10.032;2022-09-09T11:20:05;7.60;;;3.10;;
5989;SDS011;14149;53.562;10.032;2022-09-09T11:23:15;6.60;;;3.10;;
5989;SDS011;14149;53.562;10.032;2022-09-09T11:25:22;6.70;;;3.10;;
5989;SDS011;14149;53.562;10.032;2022-09-09T11:30:18;6.37;;;2.90;;
5989;SDS011;14149;53.562;10.032;2022-09-09T11:40:32;6.37;;;3.17;;
5989;SDS011;14149;53.562;10.032;2022-09-09T11:43:09;7.20;;;3.50;;
5989;SDS011;14149;53.562;10.032;2022-09-09T11:45:37;7.83;;;3.40;;
5989;SDS011;14149;53.562;10.032;2022-09-09T11:48:04;6.70;;;2.83;;
5989;SDS011;14149;53.562;10.032;2022-09-09T11:50:35;8.43;;;3.10;;
5989;SDS011;14149;53.562;10.032;2022-09-09T11:55:40;10.90;;;3.10;;
5989;SDS011;14149;53.562;10.032;2022-09-09T11:58:14;11.23;;;3.53;;
5989;SDS011;14149;53.562;10.032;2022-09-09T12:00:42;8.47;;;2.90;;
5989;SDS011;14149;53.562;10.032;2022-09-09T12:05:54;6.90;;;3.20;;
5989;SDS011;14149;53.562;10.032;2022-09-09T12:08:24;9.17;;;4.10;;
5989;SDS011;14149;53.562;10.032;2022-09-09T12:10:58;6.10;;;2.70;;
5989;SDS011;14149;53.562;10.032;2022-09-09T12:13:25;8.50;;;4.50;;
5989;SDS011;14149;53.562;10.032;2022-09-09T12:15:52;5.80;;;3.10;;
5989;SDS011;14149;53.562;10.032;2022-09-09T12:21:36;6.40;;;3.17;;
5989;SDS011;14149;53.562;10.032;2022-09-09T12:23:50;6.97;;;3.20;;
5989;SDS011;14149;53.562;10.032;2022-09-09T12:29:09;6.70;;;3.33;;
5989;SDS011;14149;53.562;10.032;2022-09-09T12:34:33;6.20;;;3.27;;
5989;SDS011;14149;53.562;10.032;2022-09-09T12:39:47;8.00;;;3.60;;
5989;SDS011;14149;53.562;10.032;2022-09-09T12:42:19;6.53;;;3.70;;
5989;SDS011;14149;53.562;10.032;2022-09-09T12:47:17;9.23;;;3.90;;
5989;SDS011;14149;53.562;10.032;2022-09-09T12:49:45;7.93;;;3.73;;
5989;SDS011;14149;53.562;10.032;2022-09-09T12:52:17;8.83;;;3.80;;
5989;SDS011;14149;53.562;10.032;2022-09-09T12:54:44;7.30;;;3.50;;
5989;SDS011;14149;53.562;10.032;2022-09-09T12:57:18;8.00;;;3.57;;
5989;SDS011;14149;53.562;10.032;2022-09-09T12:59:45;12.10;;;4.40;;
5989;SDS011;14149;53.562;10.032;2022-09-09T13:02:21;12.27;;;4.20;;
5989;SDS011;14149;53.562;10.032;2022-09-09T13:04:47;7.90;;;4.10;;
5989;SDS011;14149;53.562;10.032;2022-09-09T13:07:15;7.07;;;3.73;;
5989;SDS011;14149;53.562;10.032;2022-09-09T13:09:42;7.97;;;3.97;;
5989;SDS011;14149;53.562;10.032;2022-09-09T13:12:16;11.17;;;4.43;;
5989;SDS011;14149;53.562;10.032;2022-09-09T13:14:44;11.70;;;4.80;;
5989;SDS011;14149;53.562;10.032;2022-09-09T13:17:17;9.07;;;4.20;;
5989;SDS011;14149;53.562;10.032;2022-09-09T13:19:43;7.07;;;4.07;;
5989;SDS011;14149;53.562;10.032;2022-09-09T13:22:18;10.73;;;4.40;;
5989;SDS011;14149;53.562;10.032;2022-09-09T13:24:46;9.20;;;4.00;;
5989;SDS011;14149;53.562;10.032;2022-09-09T13:29:53;10.57;;;3.50;;
5989;SDS011;14149;53.562;10.032;2022-09-09T13:32:23;7.10;;;4.17;;
5989;SDS011;14149;53.562;10.032;2022-09-09T13:37:34;11.90;;;5.43;;
5989;SDS011;14149;53.562;10.032;2022-09-09T13:40:01;14.50;;;5.07;;
5989;SDS011;14149;53.562;10.032;2022-09-09T13:42:28;12.80;;;5.70;;
5989;SDS011;14149;53.562;10.032;2022-09-09T13:44:55;9.23;;;4.47;;
5989;SDS011;14149;53.562;10.032;2022-09-09T13:47:26;8.53;;;4.77;;
5989;SDS011;14149;53.562;10.032;2022-09-09T13:49:53;8.80;;;5.40;;
5989;SDS011;14149;53.562;10.032;2022-09-09T13:52:19;8.30;;;5.20;;
5989;SDS011;14149;53.562;10.032;2022-09-09T13:54:50;10.97;;;5.70;;
5989;SDS011;14149;53.562;10.032;2022-09-09T13:57:20;12.27;;;5.90;;
5989;SDS011;14149;53.562;10.032;2022-09-09T13:59:47;10.50;;;6.20;;
5989;SDS011;14149;53.562;10.032;2022-09-09T14:02:13;11.20;;;6.70;;
5989;SDS011;14149;53.562;10.032;2022-09-09T14:04:40;11.73;;;6.80;;
5989;SDS011;14149;53.562;10.032;2022-09-09T14:07:08;10.30;;;7.10;;
5989;SDS011;14149;53.562;10.032;2022-09-09T14:09:35;12.73;;;6.90;;
5989;SDS011;14149;53.562;10.032;2022-09-09T14:12:02;12.80;;;7.03;;
5989;SDS011;14149;53.562;10.032;2022-09-09T14:14:28;22.40;;;8.10;;
5989;SDS011;14149;53.562;10.032;2022-09-09T14:16:54;15.33;;;7.57;;
5989;SDS011;14149;53.562;10.032;2022-09-09T14:19:20;15.50;;;6.47;;
5989;SDS011;14149;53.562;10.032;2022-09-09T14:21:46;9.43;;;6.50;;
5989;SDS011;14149;53.562;10.032;2022-09-09T14:24:12;9.20;;;6.60;;
5989;SDS011;14149;53.562;10.032;2022-09-09T14:26:39;11.40;;;6.57;;
5989;SDS011;14149;53.562;10.032;2022-09-09T14:29:05;14.23;;;5.60;;
5989;SDS011;14149;53.562;10.032;2022-09-09T14:31:32;8.10;;;4.80;;
5989;SDS011;14149;53.562;10.032;2022-09-09T14:33:58;8.37;;;4.97;;
5989;SDS011;14149;53.562;10.032;2022-09-09T14:36:24;9.83;;;4.30;;
5989;SDS011;14149;53.562;10.032;2022-09-09T14:38:50;7.63;;;4.13;;
5989;SDS011;14149;53.562;10.032;2022-09-09T14:41:17;10.07;;;4.60;;
5989;SDS011;14149;53.562;10.032;2022-09-09T14:43:44;8.83;;;4.47;;
5989;SDS011;14149;53.562;10.032;2022-09-09T14:46:14;11.40;;;5.47;;
5989;SDS011;14149;53.562;10.032;2022-09-09T14:48:40;10.87;;;5.10;;
5989;SDS011;14149;53.562;10.032;2022-09-09T14:51:07;10.17;;;4.93;;
5989;SDS011;14149;53.562;10.032;2022-09-09T14:53:34;8.73;;;5.00;;
5989;SDS011;14149;53.562;10.032;2022-09-09T14:56:08;7.60;;;4.53;;
5989;SDS011;14149;53.562;10.032;2022-09-09T14:58:34;9.60;;;5.17;;
5989;SDS011;14149;53.562;10.032;2022-09-09T15:01:08;9.57;;;5.57;;
5989;SDS011;14149;53.562;10.032;2022-09-09T15:03:41;13.10;;;5.63;;
5989;SDS011;14149;53.562;10.032;2022-09-09T15:06:11;11.40;;;5.23;;
5989;SDS011;14149;53.562;10.032;2022-09-09T15:08:38;10.37;;;5.90;;
5989;SDS011;14149;53.562;10.032;2022-09-09T15:11:05;10.20;;;6.50;;
5989;SDS011;14149;53.562;10.032;2022-09-09T15:13:35;10.00;;;5.97;;
5989;SDS011;14149;53.562;10.032;2022-09-09T15:16:12;10.97;;;6.50;;
5989;SDS011;14149;53.562;10.032;2022-09-09T15:18:38;14.40;;;6.53;;
5989;SDS011;14149;53.562;10.032;2022-09-09T15:21:07;11.73;;;6.37;;
5989;SDS011;14149;53.562;10.032;2022-09-09T15:23:34;10.20;;;5.70;;
5989;SDS011;14149;53.562;10.032;2022-09-09T15:26:00;10.40;;;6.10;;
5989;SDS011;14149;53.562;10.032;2022-09-09T15:28:26;11.47;;;5.17;;
5989;SDS011;14149;53.562;10.032;2022-09-09T15:30:53;8.57;;;4.60;;
5989;SDS011;14149;53.562;10.032;2022-09-09T15:33:19;10.13;;;4.80;;
5989;SDS011;14149;53.562;10.032;2022-09-09T15:35:46;10.30;;;4.70;;
5989;SDS011;14149;53.562;10.032;2022-09-09T15:38:12;8.60;;;4.50;;
5989;SDS011;14149;53.562;10.032;2022-09-09T15:40:40;12.40;;;5.10;;
5989;SDS011;14149;53.562;10.032;2022-09-09T15:43:06;8.97;;;4.73;;
5989;SDS011;14149;53.562;10.032;2022-09-09T15:45:33;14.27;;;5.73;;
5989;SDS011;14149;53.562;10.032;2022-09-09T15:47:59;10.77;;;5.00;;
5989;SDS011;14149;53.562;10.032;2022-09-09T15:50:26;7.37;;;3.97;;
5989;SDS011;14149;53.562;10.032;2022-09-09T15:52:53;7.47;;;4.10;;
5989;SDS011;14149;53.562;10.032;2022-09-09T15:55:19;6.63;;;3.73;;
5989;SDS011;14149;53.562;10.032;2022-09-09T15:57:46;13.40;;;3.57;;
5989;SDS011;14149;53.562;10.032;2022-09-09T16:00:12;7.17;;;3.40;;
5989;SDS011;14149;53.562;10.032;2022-09-09T16:02:39;8.17;;;3.73;;
5989;SDS011;14149;53.562;10.032;2022-09-09T16:05:05;7.63;;;3.40;;
5989;SDS011;14149;53.562;10.032;2022-09-09T16:07:31;9.13;;;3.70;;
5989;SDS011;14149;53.562;10.032;2022-09-09T16:09:59;7.37;;;3.53;;
5989;SDS011;14149;53.562;10.032;2022-09-09T16:12:26;9.13;;;4.30;;
5989;SDS011;14149;53.562;10.032;2022-09-09T16:14:52;8.93;;;4.43;;
5989;SDS011;14149;53.562;10.032;2022-09-09T16:17:18;9.00;;;4.17;;
5989;SDS011;14149;53.562;10.032;2022-09-09T16:19:45;7.93;;;4.23;;
5989;SDS011;14149;53.562;10.032;2022-09-09T16:22:11;9.50;;;4.57;;
5989;SDS011;14149;53.562;10.032;2022-09-09T16:24:40;9.60;;;4.73;;
5989;SDS011;14149;53.562;10.032;2022-09-09T16:27:06;8.33;;;4.57;;
5989;SDS011;14149;53.562;10.032;2022-09-09T16:29:32;6.80;;;3.90;;
5989;SDS011;14149;53.562;10.032;2022-09-09T16:31:59;7.40;;;4.10;;
5989;SDS011;14149;53.562;10.032;2022-09-09T16:34:25;9.30;;;3.93;;
5989;SDS011;14149;53.562;10.032;2022-09-09T16:36:51;10.53;;;4.03;;
5989;SDS011;14149;53.562;10.032;2022-09-09T16:39:18;11.97;;;4.23;;
5989;SDS011;14149;53.562;10.032;2022-09-09T16:41:45;7.53;;;4.00;;
5989;SDS011;14149;53.562;10.032;2022-09-09T16:44:12;10.90;;;4.10;;
5989;SDS011;14149;53.562;10.032;2022-09-09T16:46:39;6.70;;;3.93;;